createdAt,value
2022-12-09T00:01:17.720Z,-1.70
2022-12-09T00:03:45.784Z,-1.70
2022-12-09T00:06:22.991Z,-1.80
2022-12-09T00:08:51.334Z,-1.70
2022-12-09T00:11:20.313Z,-1.80
2022-12-09T00:13:52.349Z,-1.80
2022-12-09T00:16:20.935Z,-1.80
2022-12-09T00:18:48.900Z,-1.90
2022-12-09T00:21:21.299Z,-1.90
2022-12-09T00:23:50.688Z,-1.90
2022-12-09T00:26:20.069Z,-2.00
2022-12-09T00:28:49.033Z,-1.90
2022-12-09T00:31:20.621Z,-1.90
2022-12-09T00:33:48.258Z,-1.90
2022-12-09T00:36:21.844Z,-1.90
2022-12-09T00:38:49.782Z,-1.90
2022-12-09T00:41:18.083Z,-1.90
2022-12-09T00:43:45.510Z,-1.80
2022-12-09T00:46:14.497Z,-1.80
2022-12-09T00:48:42.759Z,-1.80
2022-12-09T00:51:14.135Z,-1.80
2022-12-09T00:53:42.564Z,-1.80
2022-12-09T00:56:10.049Z,-1.80
2022-12-09T00:58:37.324Z,-1.70
2022-12-09T01:01:04.905Z,-1.70
2022-12-09T01:03:33.088Z,-1.70
2022-12-09T01:06:01.188Z,-1.70
2022-12-09T01:08:28.597Z,-1.70
2022-12-09T01:10:56.352Z,-1.70
2022-12-09T01:13:23.856Z,-1.70
2022-12-09T01:15:51.451Z,-1.70
2022-12-09T01:18:19.199Z,-1.70
2022-12-09T01:20:55.948Z,-1.70
2022-12-09T01:23:23.562Z,-1.70
2022-12-09T01:25:51.045Z,-1.70
2022-12-09T01:28:18.555Z,-1.70
2022-12-09T01:30:46.042Z,-1.70
2022-12-09T01:33:13.481Z,-1.60
2022-12-09T01:35:42.405Z,-1.60
2022-12-09T01:38:10.084Z,-1.60
2022-12-09T01:40:37.530Z,-1.60
2022-12-09T01:43:04.947Z,-1.50
2022-12-09T01:45:41.386Z,-1.60
2022-12-09T01:48:32.258Z,-1.50
2022-12-09T01:51:08.246Z,-1.50
2022-12-09T01:53:38.835Z,-1.50
2022-12-09T01:56:12.710Z,-1.50
2022-12-09T01:58:40.403Z,-1.50
2022-12-09T02:01:07.970Z,-1.40
2022-12-09T02:03:35.716Z,-1.40
2022-12-09T02:06:03.875Z,-1.40
2022-12-09T02:08:31.465Z,-1.40
2022-12-09T02:11:20.471Z,-1.30
2022-12-09T02:14:22.397Z,-1.30
2022-12-09T02:17:18.223Z,-1.40
2022-12-09T02:20:05.574Z,-1.40
2022-12-09T02:22:44.008Z,-1.50
2022-12-09T02:25:39.568Z,-1.50
2022-12-09T02:28:44.158Z,-1.50
2022-12-09T02:31:41.119Z,-1.50
2022-12-09T02:34:13.887Z,-1.50
2022-12-09T02:36:56.037Z,-1.50
2022-12-09T02:39:31.791Z,-1.40
2022-12-09T02:42:02.852Z,-1.40
2022-12-09T02:44:31.429Z,-1.40
2022-12-09T02:47:00.376Z,-1.40
2022-12-09T02:49:30.858Z,-1.40
2022-12-09T02:51:59.961Z,-1.40
2022-12-09T02:54:31.306Z,-1.40
2022-12-09T02:57:05.769Z,-1.40
2022-12-09T02:59:33.224Z,-1.50
2022-12-09T03:02:22.722Z,-1.50
2022-12-09T03:05:15.423Z,-1.50
2022-12-09T03:08:12.213Z,-1.50
2022-12-09T03:11:24.220Z,-1.50
2022-12-09T03:14:28.341Z,-1.60
2022-12-09T03:17:03.460Z,-1.50
2022-12-09T03:19:54.224Z,-1.50
2022-12-09T03:22:25.477Z,-1.40
2022-12-09T03:25:20.068Z,-1.40
2022-12-09T03:28:04.051Z,-1.40
2022-12-09T03:30:38.400Z,-1.40
2022-12-09T03:33:07.233Z,-1.40
2022-12-09T03:35:40.736Z,-1.40
2022-12-09T03:38:12.333Z,-1.40
2022-12-09T03:40:41.398Z,-1.50
2022-12-09T03:43:22.183Z,-1.50
2022-12-09T03:45:52.283Z,-1.60
2022-12-09T03:48:20.883Z,-1.60
2022-12-09T03:51:05.049Z,-1.70
2022-12-09T03:53:44.279Z,-1.80
2022-12-09T03:56:27.405Z,-1.90
2022-12-09T03:58:57.294Z,-2.00
2022-12-09T04:01:25.220Z,-2.00
2022-12-09T04:03:55.291Z,-2.10
2022-12-09T04:06:23.763Z,-2.20
2022-12-09T04:08:51.437Z,-2.40
2022-12-09T04:11:19.056Z,-2.50
2022-12-09T04:13:46.850Z,-2.70
2022-12-09T04:16:14.942Z,-2.90
2022-12-09T04:18:43.428Z,-3.10
2022-12-09T04:21:13.943Z,-3.20
2022-12-09T04:23:43.426Z,-3.40
2022-12-09T04:26:15.594Z,-3.40
2022-12-09T04:28:43.384Z,-3.60
2022-12-09T04:31:13.076Z,-3.70
2022-12-09T04:33:41.225Z,-3.80
2022-12-09T04:36:11.819Z,-3.90
2022-12-09T04:38:39.747Z,-4.10
2022-12-09T04:41:09.028Z,-4.20
2022-12-09T04:43:36.474Z,-4.30
2022-12-09T04:46:07.265Z,-4.30
2022-12-09T04:48:34.905Z,-4.40
2022-12-09T04:51:02.349Z,-4.40
2022-12-09T04:53:29.891Z,-4.50
2022-12-09T04:56:07.225Z,-4.70
2022-12-09T04:58:35.037Z,-4.70
2022-12-09T05:01:10.496Z,-4.70
2022-12-09T05:03:38.724Z,-4.80
2022-12-09T05:06:13.369Z,-4.80
2022-12-09T05:08:42.351Z,-4.90
2022-12-09T05:11:10.732Z,-4.90
2022-12-09T05:13:38.627Z,-4.90
2022-12-09T05:16:16.015Z,-4.90
2022-12-09T05:18:47.223Z,-4.90
2022-12-09T05:21:18.082Z,-4.90
2022-12-09T05:23:46.483Z,-4.80
2022-12-09T05:26:16.639Z,-4.40
2022-12-09T05:28:44.415Z,-4.10
2022-12-09T05:31:18.162Z,-3.70
2022-12-09T05:33:47.041Z,-3.40
2022-12-09T05:36:18.276Z,-3.20
2022-12-09T05:38:45.892Z,-3.20
2022-12-09T05:41:14.110Z,-3.20
2022-12-09T05:43:42.291Z,-3.20
2022-12-09T05:46:10.886Z,-3.30
2022-12-09T05:48:38.642Z,-3.40
2022-12-09T05:51:10.649Z,-3.40
2022-12-09T05:53:39.085Z,-3.50
2022-12-09T05:56:06.844Z,-3.60
2022-12-09T05:58:35.640Z,-3.70
2022-12-09T06:01:10.176Z,-3.60
2022-12-09T06:03:38.771Z,-3.50
2022-12-09T06:06:12.585Z,-3.50
2022-12-09T06:08:41.234Z,-3.50
2022-12-09T06:11:20.895Z,-3.70
2022-12-09T06:13:49.885Z,-3.80
2022-12-09T06:16:21.803Z,-3.80
2022-12-09T06:18:50.711Z,-3.90
2022-12-09T06:21:21.211Z,-3.90
2022-12-09T06:23:50.631Z,-4.10
2022-12-09T06:26:24.706Z,-4.30
2022-12-09T06:28:53.566Z,-4.40
2022-12-09T06:31:23.133Z,-4.50
2022-12-09T06:33:55.790Z,-4.50
2022-12-09T06:36:25.506Z,-4.60
2022-12-09T06:38:53.624Z,-4.70
2022-12-09T06:41:21.411Z,-4.90
2022-12-09T06:43:50.134Z,-5.10
2022-12-09T06:46:20.452Z,-5.30
2022-12-09T06:48:48.480Z,-5.40
2022-12-09T06:51:17.880Z,-5.50
2022-12-09T06:53:46.303Z,-5.70
2022-12-09T06:56:15.086Z,-5.80
2022-12-09T06:58:44.328Z,-5.80
2022-12-09T07:01:19.363Z,-5.70
2022-12-09T07:03:50.271Z,-6.00
2022-12-09T07:06:27.801Z,-6.10
2022-12-09T07:08:57.612Z,-6.30
2022-12-09T07:11:25.898Z,-6.40
2022-12-09T07:13:54.794Z,-6.20
2022-12-09T07:16:22.909Z,-6.30
2022-12-09T07:18:51.260Z,-6.40
2022-12-09T07:21:20.906Z,-6.30
2022-12-09T07:23:49.178Z,-6.40
2022-12-09T07:26:17.799Z,-6.20
2022-12-09T07:28:47.560Z,-6.20
2022-12-09T07:31:22.377Z,-6.30
2022-12-09T07:33:51.696Z,-6.30
2022-12-09T07:36:21.545Z,-6.00
2022-12-09T07:38:54.563Z,-5.90
2022-12-09T07:41:22.380Z,-5.80
2022-12-09T07:43:50.415Z,-5.90
2022-12-09T07:46:20.714Z,-5.40
2022-12-09T07:48:49.372Z,-4.90
2022-12-09T07:51:17.798Z,-4.50
2022-12-09T07:53:46.054Z,-3.60
2022-12-09T07:56:15.805Z,-3.00
2022-12-09T07:58:45.827Z,-3.40
2022-12-09T08:01:18.746Z,-3.20
2022-12-09T08:03:47.418Z,-3.30
2022-12-09T08:06:21.846Z,-2.80
2022-12-09T08:08:51.059Z,-2.70
2022-12-09T08:11:23.283Z,-2.70
2022-12-09T08:13:51.751Z,-2.50
2022-12-09T08:16:21.759Z,-2.30
2022-12-09T08:18:50.638Z,-2.20
2022-12-09T08:21:21.922Z,-2.40
2022-12-09T08:23:50.831Z,-3.00
2022-12-09T08:26:21.683Z,-3.60
2022-12-09T08:28:50.423Z,-4.00
2022-12-09T08:31:21.845Z,-4.20
2022-12-09T08:33:50.569Z,-4.50
2022-12-09T08:36:26.694Z,-4.70
2022-12-09T08:38:55.287Z,-4.90
2022-12-09T08:41:36.786Z,-4.90
2022-12-09T08:44:20.080Z,-5.00
2022-12-09T08:46:50.203Z,-5.00
2022-12-09T08:49:20.315Z,-4.90
2022-12-09T08:51:50.193Z,-4.90
2022-12-09T08:54:18.117Z,-4.90
2022-12-09T08:56:47.580Z,-4.80
2022-12-09T08:59:16.234Z,-4.70
2022-12-09T09:01:44.780Z,-4.60
2022-12-09T09:04:15.327Z,-4.70
2022-12-09T09:06:45.482Z,-4.70
2022-12-09T09:09:14.495Z,-4.60
2022-12-09T09:11:44.040Z,-4.60
2022-12-09T09:14:14.294Z,-4.60
2022-12-09T09:16:44.086Z,-4.50
2022-12-09T09:19:21.463Z,-4.40
2022-12-09T09:21:49.913Z,-4.30
2022-12-09T09:24:21.614Z,-4.30
2022-12-09T09:26:51.003Z,-4.40
2022-12-09T09:29:21.658Z,-4.30
2022-12-09T09:31:50.517Z,-4.30
2022-12-09T09:34:19.378Z,-4.30
2022-12-09T09:36:49.159Z,-4.20
2022-12-09T09:39:16.862Z,-4.20
2022-12-09T09:42:01.949Z,-4.10
2022-12-09T09:44:46.965Z,-4.10
2022-12-09T09:47:38.573Z,-4.20
2022-12-09T09:50:30.047Z,-4.10
2022-12-09T09:52:58.571Z,-4.00
2022-12-09T09:55:42.271Z,-3.90
2022-12-09T09:58:35.991Z,-3.70
2022-12-09T10:01:12.379Z,-3.30
2022-12-09T10:04:14.045Z,-2.90
2022-12-09T10:06:48.978Z,-2.50
2022-12-09T10:09:56.687Z,-2.10
2022-12-09T10:12:40.372Z,-2.00
2022-12-09T10:15:40.868Z,-2.00
2022-12-09T10:18:19.182Z,-2.50
2022-12-09T10:20:48.026Z,-3.00
2022-12-09T10:23:17.226Z,-3.20
2022-12-09T10:26:08.658Z,-3.40
2022-12-09T10:28:43.843Z,-3.50
2022-12-09T10:31:12.679Z,-3.50
2022-12-09T10:33:41.949Z,-3.60
2022-12-09T10:36:35.191Z,-3.60
2022-12-09T10:39:05.311Z,-3.60
2022-12-09T10:42:10.694Z,-3.60
2022-12-09T10:44:39.177Z,-3.60
2022-12-09T10:47:20.892Z,-3.50
2022-12-09T10:49:52.714Z,-3.50
2022-12-09T10:52:25.037Z,-3.50
2022-12-09T10:54:52.978Z,-3.40
2022-12-09T10:57:25.929Z,-3.60
2022-12-09T11:00:17.320Z,-3.60
2022-12-09T11:02:56.192Z,-2.90
2022-12-09T11:05:29.888Z,-1.20
2022-12-09T11:07:59.641Z,0.40
2022-12-09T11:10:30.133Z,1.80
2022-12-09T11:13:08.091Z,2.40
2022-12-09T11:15:41.545Z,3.30
2022-12-09T11:18:22.209Z,5.40
2022-12-09T11:21:29.828Z,5.40
2022-12-09T11:24:02.895Z,5.90
2022-12-09T11:26:38.446Z,5.70
2022-12-09T11:29:17.830Z,5.70
2022-12-09T11:31:46.308Z,5.70
2022-12-09T11:34:26.308Z,5.90
2022-12-09T11:36:54.903Z,4.80
2022-12-09T11:39:36.162Z,5.10
2022-12-09T11:42:23.316Z,4.60
2022-12-09T11:45:17.849Z,4.10
2022-12-09T11:50:37.687Z,4.70
2022-12-09T11:53:14.349Z,4.80
2022-12-09T11:55:57.098Z,5.30
2022-12-09T11:58:40.401Z,4.00
2022-12-09T12:01:22.370Z,1.80
2022-12-09T12:03:57.205Z,0.30
2022-12-09T12:06:28.166Z,-0.50
2022-12-09T12:09:10.681Z,-1.80
2022-12-09T12:12:10.474Z,-2.20
2022-12-09T12:14:42.196Z,-3.40
2022-12-09T12:17:36.954Z,-3.80
2022-12-09T12:20:06.234Z,-3.60
2022-12-09T12:22:58.674Z,-3.60
2022-12-09T12:25:40.785Z,-3.90
2022-12-09T12:28:56.683Z,-4.10
2022-12-09T12:31:44.563Z,-4.40
2022-12-09T12:34:56.329Z,-4.60
2022-12-09T12:37:58.377Z,-4.70
2022-12-09T12:40:50.652Z,-5.00
2022-12-09T12:44:19.264Z,-5.20
2022-12-09T12:47:07.343Z,-5.10
2022-12-09T12:49:49.709Z,-5.20
2022-12-09T12:52:55.556Z,-5.40
2022-12-09T12:55:45.280Z,-5.50
2022-12-09T12:58:35.039Z,-5.80
2022-12-09T13:01:49.551Z,-6.00
2022-12-09T13:04:34.373Z,-6.00
2022-12-09T13:07:20.392Z,-6.20
2022-12-09T13:09:53.727Z,-6.30
2022-12-09T13:12:48.198Z,-6.40
2022-12-09T13:15:18.541Z,-6.50
2022-12-09T13:17:48.507Z,-6.60
2022-12-09T13:20:30.429Z,-7.00
2022-12-09T13:23:22.727Z,-7.00
2022-12-09T13:26:17.787Z,-7.10
2022-12-09T13:29:05.504Z,-7.30
2022-12-09T13:31:35.559Z,-7.60
2022-12-09T13:34:30.099Z,-7.80
2022-12-09T13:36:57.454Z,-7.80
2022-12-09T13:39:54.508Z,-7.90
2022-12-09T13:42:46.649Z,-7.90
2022-12-09T13:45:34.844Z,-8.00
2022-12-09T13:48:22.317Z,-8.10
2022-12-09T13:50:54.576Z,-8.10
2022-12-09T13:53:21.917Z,-8.20
2022-12-09T13:55:52.458Z,-8.20
2022-12-09T13:58:41.764Z,-8.30
2022-12-09T14:01:12.105Z,-8.30
2022-12-09T14:04:06.433Z,-8.40
2022-12-09T14:06:47.144Z,-8.50
2022-12-09T14:09:27.461Z,-8.50
2022-12-09T14:12:00.783Z,-8.60
2022-12-09T14:14:28.248Z,-8.60
2022-12-09T14:16:57.905Z,-8.70
2022-12-09T14:19:24.963Z,-8.90
2022-12-09T14:22:20.523Z,-8.90
2022-12-09T14:25:17.093Z,-8.90
2022-12-09T14:28:12.475Z,-8.80
2022-12-09T14:30:49.257Z,-8.80
2022-12-09T14:33:35.026Z,-8.80
2022-12-09T14:36:02.356Z,-8.80
2022-12-09T14:39:15.813Z,-8.90
2022-12-09T14:41:59.499Z,-8.90
2022-12-09T14:44:29.636Z,-9.00
2022-12-09T14:47:19.809Z,-9.00
2022-12-09T14:49:49.693Z,-9.10
2022-12-09T14:52:35.373Z,-9.10
2022-12-09T14:55:09.596Z,-9.00
2022-12-09T14:57:45.157Z,-9.00
2022-12-09T15:00:36.569Z,-9.00
2022-12-09T15:03:36.819Z,-9.10
2022-12-09T15:06:12.277Z,-9.30
2022-12-09T15:08:41.368Z,-9.50
2022-12-09T15:11:10.478Z,-9.80
2022-12-09T15:13:41.062Z,-9.90
2022-12-09T15:16:15.557Z,-9.70
2022-12-09T15:18:45.031Z,-9.50
2022-12-09T15:21:27.730Z,-9.40
2022-12-09T15:23:56.278Z,-9.30
2022-12-09T15:26:29.279Z,-9.30
2022-12-09T15:28:59.565Z,-9.20
2022-12-09T15:31:30.170Z,-9.10
2022-12-09T15:34:01.479Z,-9.00
2022-12-09T15:36:41.979Z,-9.00
2022-12-09T15:39:28.184Z,-9.00
2022-12-09T15:42:13.205Z,-9.00
2022-12-09T15:44:50.888Z,-9.00
2022-12-09T15:47:28.627Z,-9.00
2022-12-09T15:49:58.688Z,-9.10
2022-12-09T15:52:31.539Z,-9.00
2022-12-09T15:55:01.076Z,-9.10
2022-12-09T15:57:28.968Z,-9.10
2022-12-09T15:59:58.645Z,-9.20
2022-12-09T16:02:31.927Z,-9.20
2022-12-09T16:05:04.548Z,-9.20
2022-12-09T16:07:33.202Z,-9.20
2022-12-09T16:10:14.388Z,-9.30
2022-12-09T16:12:43.999Z,-9.50
2022-12-09T16:15:13.891Z,-9.60
2022-12-09T16:17:56.354Z,-9.70
2022-12-09T16:20:34.518Z,-9.70
2022-12-09T16:23:03.648Z,-9.70
2022-12-09T16:25:43.572Z,-9.80
2022-12-09T16:28:21.503Z,-9.80
2022-12-09T16:30:50.704Z,-9.90
2022-12-09T16:33:20.438Z,-9.90
2022-12-09T16:35:58.519Z,-9.90
2022-12-09T16:38:26.300Z,-10.00
2022-12-09T16:40:53.626Z,-10.00
2022-12-09T16:43:23.917Z,-10.00
2022-12-09T16:46:00.315Z,-10.00
2022-12-09T16:48:29.613Z,-10.10
2022-12-09T16:51:10.438Z,-10.20
2022-12-09T16:53:46.349Z,-10.20
2022-12-09T16:56:22.171Z,-10.30
2022-12-09T16:58:49.540Z,-10.20
2022-12-09T17:01:19.629Z,-10.20
2022-12-09T17:03:52.964Z,-10.20
2022-12-09T17:06:23.205Z,-10.20
2022-12-09T17:08:50.627Z,-10.10
2022-12-09T17:11:21.858Z,-10.10
2022-12-09T17:13:50.607Z,-10.10
2022-12-09T17:16:18.308Z,-10.10
2022-12-09T17:18:45.876Z,-10.20
2022-12-09T17:21:15.204Z,-10.20
2022-12-09T17:23:43.560Z,-10.20
2022-12-09T17:26:16.095Z,-10.30
2022-12-09T17:28:44.496Z,-10.30
2022-12-09T17:31:17.963Z,-10.30
2022-12-09T17:33:45.708Z,-10.30
2022-12-09T17:36:14.484Z,-10.40
2022-12-09T17:38:42.453Z,-10.50
2022-12-09T17:41:13.617Z,-10.60
2022-12-09T17:43:41.232Z,-10.60
2022-12-09T17:46:08.724Z,-10.60
2022-12-09T17:48:36.234Z,-10.70
2022-12-09T17:51:12.844Z,-10.80
2022-12-09T17:53:42.436Z,-10.80
2022-12-09T17:56:14.965Z,-10.70
2022-12-09T17:58:43.288Z,-10.70
2022-12-09T18:01:17.604Z,-10.70
2022-12-09T18:04:07.629Z,-10.70
2022-12-09T18:06:35.059Z,-10.60
2022-12-09T18:09:04.668Z,-10.70
2022-12-09T18:11:32.114Z,-10.80
2022-12-09T18:14:01.748Z,-10.70
2022-12-09T18:16:29.762Z,-10.80
2022-12-09T18:19:01.023Z,-10.80
2022-12-09T18:21:28.385Z,-10.90
2022-12-09T18:23:55.717Z,-11.00
2022-12-09T18:26:27.181Z,-11.00
2022-12-09T18:28:59.396Z,-11.00
2022-12-09T18:31:26.893Z,-11.00
2022-12-09T18:33:54.254Z,-11.10
2022-12-09T18:36:28.652Z,-11.00
2022-12-09T18:38:58.240Z,-11.00
2022-12-09T18:41:29.560Z,-11.00
2022-12-09T18:43:58.607Z,-10.80
2022-12-09T18:46:29.117Z,-10.80
2022-12-09T18:48:58.817Z,-10.70
2022-12-09T18:51:26.973Z,-10.70
2022-12-09T18:53:55.080Z,-10.70
2022-12-09T18:56:22.440Z,-10.70
2022-12-09T18:59:06.051Z,-10.60
2022-12-09T19:01:39.870Z,-10.70
2022-12-09T19:04:11.993Z,-10.60
2022-12-09T19:06:41.274Z,-10.70
2022-12-09T19:09:11.662Z,-10.70
2022-12-09T19:11:41.294Z,-10.80
2022-12-09T19:14:09.675Z,-10.70
2022-12-09T19:16:37.714Z,-10.80
2022-12-09T19:19:09.648Z,-10.80
2022-12-09T19:21:38.111Z,-10.70
2022-12-09T19:24:06.315Z,-10.60
2022-12-09T19:26:35.452Z,-10.60
2022-12-09T19:29:06.604Z,-10.60
2022-12-09T19:31:45.541Z,-10.60
2022-12-09T19:34:15.998Z,-10.60
2022-12-09T19:36:44.682Z,-10.70
2022-12-09T19:39:13.968Z,-10.70
2022-12-09T19:41:43.514Z,-10.70
2022-12-09T19:44:15.321Z,-10.70
2022-12-09T19:46:47.076Z,-10.70
2022-12-09T19:49:16.567Z,-10.90
2022-12-09T19:51:43.890Z,-10.90
2022-12-09T19:54:11.392Z,-10.90
2022-12-09T19:56:38.944Z,-10.90
2022-12-09T19:59:07.090Z,-10.90
2022-12-09T20:01:40.781Z,-10.90
2022-12-09T20:07:15.948Z,-10.90
2022-12-09T20:09:43.392Z,-10.80
2022-12-09T20:12:10.767Z,-10.80
2022-12-09T20:14:39.766Z,-10.80
2022-12-09T20:17:08.112Z,-10.80
2022-12-09T20:19:36.937Z,-10.80
2022-12-09T20:22:04.429Z,-10.80
2022-12-09T20:24:31.789Z,-10.80
2022-12-09T20:26:59.748Z,-10.90
2022-12-09T20:29:29.080Z,-10.90
2022-12-09T20:31:59.936Z,-11.00
2022-12-09T20:34:27.367Z,-11.00
2022-12-09T20:36:55.022Z,-11.00
2022-12-09T20:39:22.582Z,-11.00
2022-12-09T20:41:50.286Z,-11.00
2022-12-09T20:44:18.830Z,-11.00
2022-12-09T20:46:52.101Z,-11.00
2022-12-09T20:49:26.642Z,-11.00
2022-12-09T20:51:55.038Z,-11.00
2022-12-09T20:54:22.667Z,-11.10
2022-12-09T20:56:50.218Z,-11.10
2022-12-09T20:59:17.731Z,-11.10
2022-12-09T21:01:47.480Z,-11.10
2022-12-09T21:04:15.618Z,-11.10
2022-12-09T21:06:44.112Z,-11.10
2022-12-09T21:09:15.072Z,-11.20
2022-12-09T21:11:42.449Z,-11.20
2022-12-09T21:14:11.416Z,-11.20
2022-12-09T21:16:41.384Z,-11.20
2022-12-09T21:19:13.895Z,-11.20
2022-12-09T21:21:43.997Z,-11.20
2022-12-09T21:24:12.231Z,-11.20
2022-12-09T21:26:40.445Z,-11.10
2022-12-09T21:29:08.720Z,-11.10
2022-12-09T21:31:38.919Z,-11.10
2022-12-09T21:34:08.046Z,-11.30
2022-12-09T21:36:38.680Z,-11.30
2022-12-09T21:39:07.396Z,-11.30
2022-12-09T21:41:36.938Z,-11.30
2022-12-09T21:44:04.406Z,-11.30
2022-12-09T21:46:34.048Z,-11.30
2022-12-09T21:49:04.204Z,-11.30
2022-12-09T21:51:33.539Z,-11.30
2022-12-09T21:54:01.261Z,-11.40
2022-12-09T21:56:31.009Z,-11.30
2022-12-09T21:58:59.535Z,-11.30
2022-12-09T22:01:33.379Z,-11.30
2022-12-09T22:04:02.239Z,-11.40
2022-12-09T22:06:30.353Z,-11.40
2022-12-09T22:09:01.897Z,-11.40
2022-12-09T22:11:31.752Z,-11.50
2022-12-09T22:14:00.879Z,-11.50
2022-12-09T22:16:34.179Z,-11.50
2022-12-09T22:19:02.888Z,-11.50
2022-12-09T22:21:32.163Z,-11.50
2022-12-09T22:24:00.489Z,-11.50
2022-12-09T22:26:27.861Z,-11.50
2022-12-09T22:28:56.339Z,-11.60
2022-12-09T22:31:27.442Z,-11.50
2022-12-09T22:33:58.708Z,-11.50
2022-12-09T22:36:26.195Z,-11.40
2022-12-09T22:38:54.481Z,-11.40
2022-12-09T22:41:24.597Z,-11.40
2022-12-09T22:43:53.446Z,-11.40
2022-12-09T22:46:24.062Z,-11.40
2022-12-09T22:48:52.070Z,-11.40
2022-12-09T22:51:22.159Z,-11.40
2022-12-09T22:53:51.877Z,-11.50
2022-12-09T22:56:20.148Z,-11.50
2022-12-09T22:58:47.977Z,-11.50
2022-12-09T23:01:18.571Z,-11.50
2022-12-09T23:03:45.947Z,-11.50
2022-12-09T23:06:14.105Z,-11.60
2022-12-09T23:08:43.848Z,-11.60
2022-12-09T23:11:14.797Z,-11.70
2022-12-09T23:13:42.799Z,-11.60
2022-12-09T23:16:14.887Z,-11.60
2022-12-09T23:18:42.484Z,-11.60
2022-12-09T23:21:16.207Z,-11.50
2022-12-09T23:23:44.543Z,-11.60
2022-12-09T23:26:15.535Z,-11.50
2022-12-09T23:28:45.627Z,-11.50
2022-12-09T23:31:17.003Z,-11.50
2022-12-09T23:33:47.245Z,-11.50
2022-12-09T23:36:22.137Z,-11.40
2022-12-09T23:38:50.644Z,-11.40
2022-12-09T23:41:19.768Z,-11.50
2022-12-09T23:43:48.933Z,-11.50
2022-12-09T23:46:22.766Z,-11.50
2022-12-09T23:48:51.662Z,-11.50
2022-12-09T23:51:22.486Z,-11.50
2022-12-09T23:53:51.898Z,-11.50
2022-12-09T23:56:20.841Z,-11.50
2022-12-09T23:58:53.335Z,-11.50
